sensor_id;sensor_type;location;lat;lon;timestamp;pressure;altitude;pressure_sealevel;temperature;humidity
66206;BME280;53009;52.490;4.976;2024-01-30T00:02:47;156100;;;7;13.3
66206;BME280;53009;52.490;4.976;2024-01-30T00:07:47;156100;;;7;13.3
66206;BME280;53009;52.490;4.976;2024-01-30T00:12:47;156100;;;7.1;13.1
66206;BME280;53009;52.490;4.976;2024-01-30T00:17:47;156100;;;7.1;13
66206;BME280;53009;52.490;4.976;2024-01-30T00:22:47;156100;;;7;12.9
66206;BME280;53009;52.490;4.976;2024-01-30T00:27:47;156100;;;7;13.1
66206;BME280;53009;52.490;4.976;2024-01-30T00:32:47;156000;;;6.8;12.8
66206;BME280;53009;52.490;4.976;2024-01-30T00:37:47;156000;;;6.7;12.9
66206;BME280;53009;52.490;4.976;2024-01-30T00:42:47;156000;;;6.8;12.9
66206;BME280;53009;52.490;4.976;2024-01-30T00:47:50;156000;;;6.9;13.3
66206;BME280;53009;52.490;4.976;2024-01-30T00:52:47;156000;;;6.9;13.3
66206;BME280;53009;52.490;4.976;2024-01-30T00:57:47;156000;;;7;13.4
66206;BME280;53009;52.490;4.976;2024-01-30T01:02:47;156000;;;7.1;13.5
66206;BME280;53009;52.490;4.976;2024-01-30T01:07:47;156000;;;7.1;13.5
66206;BME280;53009;52.490;4.976;2024-01-30T01:12:47;156000;;;7.2;13.5
66206;BME280;53009;52.490;4.976;2024-01-30T01:17:47;156000;;;7.2;13.6
66206;BME280;53009;52.490;4.976;2024-01-30T01:22:47;156000;;;7.3;13.6
66206;BME280;53009;52.490;4.976;2024-01-30T01:27:47;156000;;;7.3;13.6
66206;BME280;53009;52.490;4.976;2024-01-30T01:32:47;156000;;;7.4;13.8
66206;BME280;53009;52.490;4.976;2024-01-30T01:37:47;156000;;;7.4;13.5
66206;BME280;53009;52.490;4.976;2024-01-30T01:42:47;156000;;;7.4;13.7
66206;BME280;53009;52.490;4.976;2024-01-30T01:47:48;156000;;;7.5;13.7
66206;BME280;53009;52.490;4.976;2024-01-30T01:52:47;156000;;;7.5;13.5
66206;BME280;53009;52.490;4.976;2024-01-30T01:57:47;156000;;;7.5;13.6
66206;BME280;53009;52.490;4.976;2024-01-30T02:02:47;156000;;;7.6;13.9
66206;BME280;53009;52.490;4.976;2024-01-30T02:07:47;156000;;;7.6;13.6
66206;BME280;53009;52.490;4.976;2024-01-30T02:12:48;156000;;;7.6;13.7
66206;BME280;53009;52.490;4.976;2024-01-30T02:17:47;156000;;;7.6;13.5
66206;BME280;53009;52.490;4.976;2024-01-30T02:22:47;156000;;;7.7;13.5
66206;BME280;53009;52.490;4.976;2024-01-30T02:27:47;156000;;;7.7;13.5
66206;BME280;53009;52.490;4.976;2024-01-30T02:32:47;156000;;;7.7;13.4
66206;BME280;53009;52.490;4.976;2024-01-30T02:37:47;156000;;;7.7;13.4
66206;BME280;53009;52.490;4.976;2024-01-30T02:42:50;156000;;;7.7;13.3
66206;BME280;53009;52.490;4.976;2024-01-30T02:47:47;156000;;;7.6;13.3
66206;BME280;53009;52.490;4.976;2024-01-30T02:52:47;156000;;;7.7;13.5
66206;BME280;53009;52.490;4.976;2024-01-30T02:57:47;156000;;;7.7;13.3
66206;BME280;53009;52.490;4.976;2024-01-30T03:02:47;156000;;;7.7;13.1
66206;BME280;53009;52.490;4.976;2024-01-30T03:07:47;156000;;;7.7;13
66206;BME280;53009;52.490;4.976;2024-01-30T03:12:47;156000;;;7.7;13
66206;BME280;53009;52.490;4.976;2024-01-30T03:17:47;155900;;;7.7;12.9
66206;BME280;53009;52.490;4.976;2024-01-30T03:22:47;155900;;;7.6;12.9
66206;BME280;53009;52.490;4.976;2024-01-30T03:27:47;155900;;;7.6;12.7
66206;BME280;53009;52.490;4.976;2024-01-30T03:32:47;155900;;;7.6;12.8
66206;BME280;53009;52.490;4.976;2024-01-30T03:37:47;155900;;;7.6;12.9
66206;BME280;53009;52.490;4.976;2024-01-30T03:42:47;155900;;;7.6;12.9
66206;BME280;53009;52.490;4.976;2024-01-30T03:47:47;155900;;;7.7;13
66206;BME280;53009;52.490;4.976;2024-01-30T03:52:47;155900;;;7.7;12.9
66206;BME280;53009;52.490;4.976;2024-01-30T03:57:47;155900;;;7.7;13
66206;BME280;53009;52.490;4.976;2024-01-30T04:02:47;155900;;;7.8;12.9
66206;BME280;53009;52.490;4.976;2024-01-30T04:07:47;155900;;;7.8;12.8
66206;BME280;53009;52.490;4.976;2024-01-30T04:12:47;155900;;;7.8;12.8
66206;BME280;53009;52.490;4.976;2024-01-30T04:17:47;155900;;;7.9;12.7
66206;BME280;53009;52.490;4.976;2024-01-30T04:22:47;155900;;;7.9;12.5
66206;BME280;53009;52.490;4.976;2024-01-30T04:27:47;155900;;;7.9;12.5
66206;BME280;53009;52.490;4.976;2024-01-30T04:32:47;155900;;;7.9;12.5
66206;BME280;53009;52.490;4.976;2024-01-30T04:37:47;155900;;;8;12.5
66206;BME280;53009;52.490;4.976;2024-01-30T04:42:47;155900;;;8;12.5
66206;BME280;53009;52.490;4.976;2024-01-30T04:47:47;155900;;;8;12.3
66206;BME280;53009;52.490;4.976;2024-01-30T04:52:47;155900;;;8.1;12.3
66206;BME280;53009;52.490;4.976;2024-01-30T04:57:47;155900;;;8.1;12.1
66206;BME280;53009;52.490;4.976;2024-01-30T05:02:47;155900;;;8.1;12.1
66206;BME280;53009;52.490;4.976;2024-01-30T05:07:47;155900;;;8.2;12
66206;BME280;53009;52.490;4.976;2024-01-30T05:12:47;155900;;;8.2;12
66206;BME280;53009;52.490;4.976;2024-01-30T05:17:47;155900;;;8.2;12
66206;BME280;53009;52.490;4.976;2024-01-30T05:22:47;155900;;;8.2;12
66206;BME280;53009;52.490;4.976;2024-01-30T05:27:47;155800;;;8.2;11.9
66206;BME280;53009;52.490;4.976;2024-01-30T05:32:47;155900;;;8.2;11.9
66206;BME280;53009;52.490;4.976;2024-01-30T05:37:47;155900;;;8.2;11.9
66206;BME280;53009;52.490;4.976;2024-01-30T05:42:47;155800;;;8.2;11.9
66206;BME280;53009;52.490;4.976;2024-01-30T05:47:47;155800;;;8.2;11.7
66206;BME280;53009;52.490;4.976;2024-01-30T05:52:47;155800;;;8.2;11.9
66206;BME280;53009;52.490;4.976;2024-01-30T05:57:47;155800;;;8.2;11.8
66206;BME280;53009;52.490;4.976;2024-01-30T06:02:47;155800;;;8.3;11.8
66206;BME280;53009;52.490;4.976;2024-01-30T06:07:47;155800;;;8.2;11.7
66206;BME280;53009;52.490;4.976;2024-01-30T06:12:47;155800;;;8.3;11.6
66206;BME280;53009;52.490;4.976;2024-01-30T06:17:47;155800;;;8.3;11.7
66206;BME280;53009;52.490;4.976;2024-01-30T06:22:47;155800;;;8.3;11.6
66206;BME280;53009;52.490;4.976;2024-01-30T06:27:47;155800;;;8.3;11.5
66206;BME280;53009;52.490;4.976;2024-01-30T06:32:47;155800;;;8.4;11.6
66206;BME280;53009;52.490;4.976;2024-01-30T06:37:47;155800;;;8.4;11.6
66206;BME280;53009;52.490;4.976;2024-01-30T06:42:47;155800;;;8.4;11.5
66206;BME280;53009;52.490;4.976;2024-01-30T06:47:47;155800;;;8.4;11.5
66206;BME280;53009;52.490;4.976;2024-01-30T06:52:47;155800;;;8.4;11.5
66206;BME280;53009;52.490;4.976;2024-01-30T06:57:47;155800;;;8.4;11.5
66206;BME280;53009;52.490;4.976;2024-01-30T07:02:47;155800;;;8.5;11.6
66206;BME280;53009;52.490;4.976;2024-01-30T07:07:50;155800;;;8.5;11.5
66206;BME280;53009;52.490;4.976;2024-01-30T07:12:47;155800;;;8.5;11.5
66206;BME280;53009;52.490;4.976;2024-01-30T07:17:47;155800;;;8.5;11.5
66206;BME280;53009;52.490;4.976;2024-01-30T07:22:47;155900;;;8.6;11.7
66206;BME280;53009;52.490;4.976;2024-01-30T07:27:47;155900;;;8.7;11.5
66206;BME280;53009;52.490;4.976;2024-01-30T07:32:47;155900;;;8.7;11.5
66206;BME280;53009;52.490;4.976;2024-01-30T07:37:47;155900;;;8.7;11.4
66206;BME280;53009;52.490;4.976;2024-01-30T07:42:48;155900;;;8.8;11.4
66206;BME280;53009;52.490;4.976;2024-01-30T07:47:48;156000;;;8.8;11.4
66206;BME280;53009;52.490;4.976;2024-01-30T07:52:47;156000;;;8.9;11.4
66206;BME280;53009;52.490;4.976;2024-01-30T07:57:47;156000;;;9;11.4
66206;BME280;53009;52.490;4.976;2024-01-30T08:02:48;156000;;;9.1;11.3
66206;BME280;53009;52.490;4.976;2024-01-30T08:07:47;156000;;;9.1;11.1
66206;BME280;53009;52.490;4.976;2024-01-30T08:12:47;156100;;;9.1;11
66206;BME280;53009;52.490;4.976;2024-01-30T08:17:47;156100;;;9.2;10.9
66206;BME280;53009;52.490;4.976;2024-01-30T08:22:47;156100;;;9.3;10.7
66206;BME280;53009;52.490;4.976;2024-01-30T08:27:47;156100;;;9.3;10.6
66206;BME280;53009;52.490;4.976;2024-01-30T08:32:47;156100;;;9.3;10.5
66206;BME280;53009;52.490;4.976;2024-01-30T08:37:47;156200;;;9.4;10.3
66206;BME280;53009;52.490;4.976;2024-01-30T08:42:47;156200;;;9.4;10.2
66206;BME280;53009;52.490;4.976;2024-01-30T08:47:48;156200;;;9.5;10.2
66206;BME280;53009;52.490;4.976;2024-01-30T08:52:47;156200;;;9.5;10.1
66206;BME280;53009;52.490;4.976;2024-01-30T08:57:48;156200;;;9.5;10.1
66206;BME280;53009;52.490;4.976;2024-01-30T09:02:48;156200;;;9.5;10.2
66206;BME280;53009;52.490;4.976;2024-01-30T09:07:48;156200;;;9.6;10.1
66206;BME280;53009;52.490;4.976;2024-01-30T09:12:48;156200;;;9.6;10.1
66206;BME280;53009;52.490;4.976;2024-01-30T09:17:47;156200;;;9.6;10.1
66206;BME280;53009;52.490;4.976;2024-01-30T09:22:48;156200;;;9.8;9.8
66206;BME280;53009;52.490;4.976;2024-01-30T09:27:48;156200;;;9.8;9.5
66206;BME280;53009;52.490;4.976;2024-01-30T09:32:48;156300;;;9.8;9.5
66206;BME280;53009;52.490;4.976;2024-01-30T09:37:48;156300;;;9.8;9.4
66206;BME280;53009;52.490;4.976;2024-01-30T09:42:48;156300;;;9.8;9.3
66206;BME280;53009;52.490;4.976;2024-01-30T09:47:48;156300;;;9.8;9.1
66206;BME280;53009;52.490;4.976;2024-01-30T09:52:48;156300;;;9.8;9.1
66206;BME280;53009;52.490;4.976;2024-01-30T09:57:48;156300;;;9.8;9
66206;BME280;53009;52.490;4.976;2024-01-30T10:02:48;156300;;;9.7;9
66206;BME280;53009;52.490;4.976;2024-01-30T10:07:50;156200;;;9.7;9
66206;BME280;53009;52.490;4.976;2024-01-30T10:12:48;156200;;;9.6;9
66206;BME280;53009;52.490;4.976;2024-01-30T10:17:48;156200;;;9.5;9.3
66206;BME280;53009;52.490;4.976;2024-01-30T10:22:48;156200;;;9.4;9.6
66206;BME280;53009;52.490;4.976;2024-01-30T10:27:51;156200;;;9.4;9.5
66206;BME280;53009;52.490;4.976;2024-01-30T10:32:48;156200;;;9.5;9.4
66206;BME280;53009;52.490;4.976;2024-01-30T10:37:48;156200;;;9.5;9.7
66206;BME280;53009;52.490;4.976;2024-01-30T10:42:48;156200;;;9.6;9.5
66206;BME280;53009;52.490;4.976;2024-01-30T10:47:48;156200;;;9.6;9.5
66206;BME280;53009;52.490;4.976;2024-01-30T10:52:51;156200;;;9.6;9.6
66206;BME280;53009;52.490;4.976;2024-01-30T10:57:48;156200;;;9.5;9.8
66206;BME280;53009;52.490;4.976;2024-01-30T11:02:48;156200;;;9.3;10.2
66206;BME280;53009;52.490;4.976;2024-01-30T11:07:48;156200;;;9.3;10.6
66206;BME280;53009;52.490;4.976;2024-01-30T11:12:48;156200;;;9.3;11.1
66206;BME280;53009;52.490;4.976;2024-01-30T11:17:50;156200;;;9.3;11.1
66206;BME280;53009;52.490;4.976;2024-01-30T11:22:49;156200;;;9.3;11
66206;BME280;53009;52.490;4.976;2024-01-30T11:27:49;156200;;;9.3;10.8
66206;BME280;53009;52.490;4.976;2024-01-30T11:32:57;156200;;;9.3;10.4
66206;BME280;53009;52.490;4.976;2024-01-30T11:37:48;156200;;;9.3;10.4
66206;BME280;53009;52.490;4.976;2024-01-30T11:42:48;156200;;;9.3;10.6
66206;BME280;53009;52.490;4.976;2024-01-30T11:47:48;156200;;;9.3;10.6
66206;BME280;53009;52.490;4.976;2024-01-30T11:52:48;156200;;;9.3;10.6
66206;BME280;53009;52.490;4.976;2024-01-30T11:57:48;156200;;;9.4;10.2
66206;BME280;53009;52.490;4.976;2024-01-30T12:02:48;156200;;;9.5;10.2
66206;BME280;53009;52.490;4.976;2024-01-30T12:07:48;156200;;;9.4;10
66206;BME280;53009;52.490;4.976;2024-01-30T12:12:48;156200;;;9.3;10
66206;BME280;53009;52.490;4.976;2024-01-30T12:17:48;156200;;;9.3;10.4
66206;BME280;53009;52.490;4.976;2024-01-30T12:22:48;156200;;;9.3;10.7
66206;BME280;53009;52.490;4.976;2024-01-30T12:27:48;156200;;;9.2;10.9
66206;BME280;53009;52.490;4.976;2024-01-30T12:32:49;156200;;;9.1;10.9
66206;BME280;53009;52.490;4.976;2024-01-30T12:37:48;156200;;;9.1;11.1
66206;BME280;53009;52.490;4.976;2024-01-30T12:42:48;156200;;;9.2;10.9
66206;BME280;53009;52.490;4.976;2024-01-30T12:47:48;156200;;;9.2;10.8
66206;BME280;53009;52.490;4.976;2024-01-30T12:52:51;156200;;;9.2;10.6
66206;BME280;53009;52.490;4.976;2024-01-30T12:57:48;156100;;;9.2;10.5
66206;BME280;53009;52.490;4.976;2024-01-30T13:02:48;156100;;;9.2;10.5
66206;BME280;53009;52.490;4.976;2024-01-30T13:07:48;156100;;;9.2;10.6
66206;BME280;53009;52.490;4.976;2024-01-30T13:12:48;156100;;;9.2;10.7
66206;BME280;53009;52.490;4.976;2024-01-30T13:17:48;156100;;;9.2;10.9
66206;BME280;53009;52.490;4.976;2024-01-30T13:22:48;156100;;;9.2;10.9
66206;BME280;53009;52.490;4.976;2024-01-30T13:27:48;156100;;;9.1;11.1
66206;BME280;53009;52.490;4.976;2024-01-30T13:32:48;156100;;;9.1;11.5
66206;BME280;53009;52.490;4.976;2024-01-30T13:37:48;156100;;;9.1;11.5
66206;BME280;53009;52.490;4.976;2024-01-30T13:42:48;156100;;;9.1;11.5
66206;BME280;53009;52.490;4.976;2024-01-30T13:47:48;156100;;;9;11.6
66206;BME280;53009;52.490;4.976;2024-01-30T13:52:48;156100;;;9;11.7
66206;BME280;53009;52.490;4.976;2024-01-30T13:57:48;156100;;;8.9;11.8
66206;BME280;53009;52.490;4.976;2024-01-30T14:02:48;156100;;;8.9;12
66206;BME280;53009;52.490;4.976;2024-01-30T14:07:48;156100;;;8.9;12.1
66206;BME280;53009;52.490;4.976;2024-01-30T14:12:48;156100;;;8.9;12.1
66206;BME280;53009;52.490;4.976;2024-01-30T14:17:51;156200;;;9;12.2
66206;BME280;53009;52.490;4.976;2024-01-30T14:22:48;156200;;;8.9;12.1
66206;BME280;53009;52.490;4.976;2024-01-30T14:27:48;156200;;;8.9;12.3
66206;BME280;53009;52.490;4.976;2024-01-30T14:32:48;156200;;;8.9;12.4
66206;BME280;53009;52.490;4.976;2024-01-30T14:37:48;156200;;;8.8;12.4
66206;BME280;53009;52.490;4.976;2024-01-30T14:42:48;156200;;;8.8;12.4
66206;BME280;53009;52.490;4.976;2024-01-30T14:47:48;156200;;;8.8;12.4
66206;BME280;53009;52.490;4.976;2024-01-30T14:52:48;156200;;;8.8;12.3
66206;BME280;53009;52.490;4.976;2024-01-30T14:57:48;156200;;;8.8;12.4
66206;BME280;53009;52.490;4.976;2024-01-30T15:02:48;156200;;;8.7;12.2
66206;BME280;53009;52.490;4.976;2024-01-30T15:07:48;156200;;;8.7;12.4
66206;BME280;53009;52.490;4.976;2024-01-30T15:12:48;156100;;;8.6;12.3
66206;BME280;53009;52.490;4.976;2024-01-30T15:17:48;156100;;;8.6;12.2
66206;BME280;53009;52.490;4.976;2024-01-30T15:22:48;156100;;;8.5;12
66206;BME280;53009;52.490;4.976;2024-01-30T15:27:48;156100;;;8.5;12
66206;BME280;53009;52.490;4.976;2024-01-30T15:32:48;156100;;;8.6;11.8
66206;BME280;53009;52.490;4.976;2024-01-30T15:37:48;156100;;;8.5;11.7
66206;BME280;53009;52.490;4.976;2024-01-30T15:42:48;156100;;;8.5;11.6
66206;BME280;53009;52.490;4.976;2024-01-30T15:47:48;156100;;;8.5;11.7
66206;BME280;53009;52.490;4.976;2024-01-30T15:52:48;156100;;;8.4;11.8
66206;BME280;53009;52.490;4.976;2024-01-30T15:57:48;156100;;;8.4;11.9
66206;BME280;53009;52.490;4.976;2024-01-30T16:02:48;156100;;;8.4;11.9
66206;BME280;53009;52.490;4.976;2024-01-30T16:07:48;156100;;;8.3;11.9
66206;BME280;53009;52.490;4.976;2024-01-30T16:12:48;156100;;;8.3;11.9
66206;BME280;53009;52.490;4.976;2024-01-30T16:17:48;156100;;;8.4;11.9
66206;BME280;53009;52.490;4.976;2024-01-30T16:22:48;156100;;;8.3;12
66206;BME280;53009;52.490;4.976;2024-01-30T16:27:48;156100;;;8.2;12
66206;BME280;53009;52.490;4.976;2024-01-30T16:32:48;156100;;;8.2;12
66206;BME280;53009;52.490;4.976;2024-01-30T16:37:48;156100;;;8.2;12
66206;BME280;53009;52.490;4.976;2024-01-30T16:42:48;156100;;;8.2;11.9
66206;BME280;53009;52.490;4.976;2024-01-30T16:47:48;156100;;;8.2;11.9
66206;BME280;53009;52.490;4.976;2024-01-30T16:52:48;156100;;;8.2;11.7
66206;BME280;53009;52.490;4.976;2024-01-30T16:57:48;156000;;;8.1;11.7
66206;BME280;53009;52.490;4.976;2024-01-30T17:02:48;156000;;;8.2;11.7
66206;BME280;53009;52.490;4.976;2024-01-30T17:07:48;156000;;;8.1;11.5
66206;BME280;53009;52.490;4.976;2024-01-30T17:12:48;156000;;;8.1;11.5
66206;BME280;53009;52.490;4.976;2024-01-30T17:17:48;156000;;;8.1;11.5
66206;BME280;53009;52.490;4.976;2024-01-30T17:22:48;156000;;;8;11.3
66206;BME280;53009;52.490;4.976;2024-01-30T17:27:48;156000;;;8;11.3
66206;BME280;53009;52.490;4.976;2024-01-30T17:32:48;156000;;;8.1;11.2
66206;BME280;53009;52.490;4.976;2024-01-30T17:37:48;156000;;;8.1;11.1
66206;BME280;53009;52.490;4.976;2024-01-30T17:42:48;156000;;;7.9;11
66206;BME280;53009;52.490;4.976;2024-01-30T17:47:48;156000;;;7.9;11
66206;BME280;53009;52.490;4.976;2024-01-30T17:52:48;156000;;;7.9;11
66206;BME280;53009;52.490;4.976;2024-01-30T17:57:48;156100;;;7.9;10.9
66206;BME280;53009;52.490;4.976;2024-01-30T18:02:48;156100;;;7.9;10.9
66206;BME280;53009;52.490;4.976;2024-01-30T18:07:48;156100;;;7.8;10.9
66206;BME280;53009;52.490;4.976;2024-01-30T18:12:48;156100;;;7.8;11
66206;BME280;53009;52.490;4.976;2024-01-30T18:17:48;156200;;;7.9;11
66206;BME280;53009;52.490;4.976;2024-01-30T18:22:48;156200;;;7.8;11.1
66206;BME280;53009;52.490;4.976;2024-01-30T18:27:48;156200;;;7.8;11
66206;BME280;53009;52.490;4.976;2024-01-30T18:32:48;156200;;;7.8;10.9
66206;BME280;53009;52.490;4.976;2024-01-30T18:37:49;156200;;;7.7;11
66206;BME280;53009;52.490;4.976;2024-01-30T18:42:48;156200;;;7.8;11.1
66206;BME280;53009;52.490;4.976;2024-01-30T18:47:48;156200;;;7.7;11
66206;BME280;53009;52.490;4.976;2024-01-30T18:52:50;156300;;;7.7;11
66206;BME280;53009;52.490;4.976;2024-01-30T18:57:48;156300;;;7.7;11.1
66206;BME280;53009;52.490;4.976;2024-01-30T19:02:48;156300;;;7.7;11
66206;BME280;53009;52.490;4.976;2024-01-30T19:07:48;156300;;;7.6;11.2
66206;BME280;53009;52.490;4.976;2024-01-30T19:12:48;156300;;;7.6;11.3
66206;BME280;53009;52.490;4.976;2024-01-30T19:17:48;156300;;;7.6;11.4
66206;BME280;53009;52.490;4.976;2024-01-30T19:22:51;156300;;;7.6;11.5
66206;BME280;53009;52.490;4.976;2024-01-30T19:27:48;156400;;;7.5;11.5
66206;BME280;53009;52.490;4.976;2024-01-30T19:32:48;156400;;;7.4;11.4
66206;BME280;53009;52.490;4.976;2024-01-30T19:37:48;156400;;;7.5;11.5
66206;BME280;53009;52.490;4.976;2024-01-30T19:42:48;156400;;;7.4;11.5
66206;BME280;53009;52.490;4.976;2024-01-30T19:47:48;156400;;;7.4;11.5
66206;BME280;53009;52.490;4.976;2024-01-30T19:52:48;156400;;;7.3;11.5
66206;BME280;53009;52.490;4.976;2024-01-30T19:57:48;156400;;;7.3;11.5
66206;BME280;53009;52.490;4.976;2024-01-30T20:02:48;156400;;;7.3;11.4
66206;BME280;53009;52.490;4.976;2024-01-30T20:07:48;156400;;;7.2;11.4
66206;BME280;53009;52.490;4.976;2024-01-30T20:12:48;156300;;;7.2;11.6
66206;BME280;53009;52.490;4.976;2024-01-30T20:17:48;156400;;;7.2;11.5
66206;BME280;53009;52.490;4.976;2024-01-30T20:22:48;156400;;;7.2;11.5
66206;BME280;53009;52.490;4.976;2024-01-30T20:27:48;156300;;;7.2;11.6
66206;BME280;53009;52.490;4.976;2024-01-30T20:32:48;156300;;;7.1;11.5
66206;BME280;53009;52.490;4.976;2024-01-30T20:37:48;156300;;;7.1;11.6
66206;BME280;53009;52.490;4.976;2024-01-30T20:42:48;156300;;;7.1;11.6
66206;BME280;53009;52.490;4.976;2024-01-30T20:47:48;156300;;;7;11.6
66206;BME280;53009;52.490;4.976;2024-01-30T20:52:48;156300;;;7;11.5
66206;BME280;53009;52.490;4.976;2024-01-30T20:57:48;156300;;;7;11.6
66206;BME280;53009;52.490;4.976;2024-01-30T21:02:48;156300;;;7;11.6
66206;BME280;53009;52.490;4.976;2024-01-30T21:07:48;156300;;;7;11.5
66206;BME280;53009;52.490;4.976;2024-01-30T21:12:48;156300;;;7;11.6
66206;BME280;53009;52.490;4.976;2024-01-30T21:17:48;156300;;;7;11.6
66206;BME280;53009;52.490;4.976;2024-01-30T21:22:48;156200;;;7;11.6
66206;BME280;53009;52.490;4.976;2024-01-30T21:27:48;156200;;;7;11.6
66206;BME280;53009;52.490;4.976;2024-01-30T21:32:48;156200;;;7;11.7
66206;BME280;53009;52.490;4.976;2024-01-30T21:37:48;156200;;;6.9;11.6
66206;BME280;53009;52.490;4.976;2024-01-30T21:42:48;156200;;;6.9;11.8
66206;BME280;53009;52.490;4.976;2024-01-30T21:47:48;156200;;;6.9;11.9
66206;BME280;53009;52.490;4.976;2024-01-30T21:52:48;156200;;;6.9;11.9
66206;BME280;53009;52.490;4.976;2024-01-30T21:57:48;156200;;;6.8;11.9
66206;BME280;53009;52.490;4.976;2024-01-30T22:02:49;156200;;;6.8;11.8
66206;BME280;53009;52.490;4.976;2024-01-30T22:07:48;156200;;;6.9;11.8
66206;BME280;53009;52.490;4.976;2024-01-30T22:12:48;156200;;;6.9;11.8
66206;BME280;53009;52.490;4.976;2024-01-30T22:17:49;156200;;;6.8;11.7
66206;BME280;53009;52.490;4.976;2024-01-30T22:22:48;156200;;;6.7;11.9
66206;BME280;53009;52.490;4.976;2024-01-30T22:27:48;156100;;;6.7;11.8
66206;BME280;53009;52.490;4.976;2024-01-30T22:32:48;156100;;;6.6;11.8
66206;BME280;53009;52.490;4.976;2024-01-30T22:37:49;156100;;;6.6;11.8
66206;BME280;53009;52.490;4.976;2024-01-30T22:42:48;156100;;;6.6;11.9
66206;BME280;53009;52.490;4.976;2024-01-30T22:47:48;156100;;;6.6;11.9
66206;BME280;53009;52.490;4.976;2024-01-30T22:52:48;156100;;;6.7;11.8
66206;BME280;53009;52.490;4.976;2024-01-30T22:57:48;156100;;;6.7;11.7
66206;BME280;53009;52.490;4.976;2024-01-30T23:02:48;156100;;;6.7;11.7
66206;BME280;53009;52.490;4.976;2024-01-30T23:07:49;156100;;;6.6;11.7
66206;BME280;53009;52.490;4.976;2024-01-30T23:12:49;156100;;;6.6;11.8
66206;BME280;53009;52.490;4.976;2024-01-30T23:17:48;156000;;;6.5;11.6
66206;BME280;53009;52.490;4.976;2024-01-30T23:22:48;156000;;;6.5;11.8
66206;BME280;53009;52.490;4.976;2024-01-30T23:27:49;156000;;;6.5;11.7
66206;BME280;53009;52.490;4.976;2024-01-30T23:32:49;156000;;;6.3;11.8
66206;BME280;53009;52.490;4.976;2024-01-30T23:37:49;156000;;;6.3;11.8
66206;BME280;53009;52.490;4.976;2024-01-30T23:42:48;156000;;;6.4;12
66206;BME280;53009;52.490;4.976;2024-01-30T23:47:49;156000;;;6.4;12
66206;BME280;53009;52.490;4.976;2024-01-30T23:52:49;156000;;;6.4;12.1
66206;BME280;53009;52.490;4.976;2024-01-30T23:57:49;156000;;;6.4;12.1
